Time;durP1;ratioP1;P1;durP2;ratioP2;P2;SDS_P1;SDS_P2;PMS_P1;PMS_P2;Temp;Humidity;BMP_temperature;BMP_pressure;BME280_temperature;BME280_humidity;BME280_pressure;Samples;Min_cycle;Max_cycle;Signal;HPM_P1;HPM_P2
2022/09/21 00:01:40;;;;;;;3.30;2.10;;;6.90;99.90;;;;;;4974088;28;20213;-70
2022/09/21 00:04:10;;;;;;;5.33;2.30;;;6.90;99.90;;;;;;4974138;28;20309;-71
2022/09/21 00:06:39;;;;;;;3.37;2.00;;;6.80;99.90;;;;;;4974137;28;20209;-71
2022/09/21 00:09:08;;;;;;;3.60;2.33;;;6.80;99.90;;;;;;4974050;28;20218;-70
2022/09/21 00:11:37;;;;;;;3.00;2.00;;;6.80;99.90;;;;;;4974034;28;20195;-70
2022/09/21 00:14:09;;;;;;;2.87;2.03;;;6.80;99.90;;;;;;4973684;28;20589;-70
2022/09/21 00:16:39;;;;;;;2.90;2.00;;;6.70;99.90;;;;;;4973979;28;20525;-70
2022/09/21 00:19:08;;;;;;;5.37;2.20;;;6.70;99.90;;;;;;4973822;28;20234;-70
2022/09/21 00:21:38;;;;;;;2.53;1.93;;;6.60;99.90;;;;;;4973836;28;20198;-70
2022/09/21 00:24:07;;;;;;;2.13;1.93;;;6.60;99.90;;;;;;4974116;28;20595;-69
2022/09/21 00:26:36;;;;;;;2.60;2.00;;;6.60;99.90;;;;;;4973928;28;20206;-71
2022/09/21 00:29:06;;;;;;;2.30;1.93;;;6.60;99.90;;;;;;4974155;28;20202;-69
2022/09/21 00:31:34;;;;;;;4.13;2.20;;;6.60;99.90;;;;;;4973935;28;20199;-72
2022/09/21 00:34:06;;;;;;;2.73;2.13;;;6.50;99.90;;;;;;4973768;28;20589;-69
2022/09/21 00:36:35;;;;;;;2.20;2.00;;;6.40;99.90;;;;;;4973763;28;20198;-70
2022/09/21 00:39:05;;;;;;;2.97;1.70;;;6.40;99.90;;;;;;4973186;28;20237;-69
2022/09/21 00:41:34;;;;;;;2.40;1.87;;;6.40;99.90;;;;;;4973805;28;20195;-70
2022/09/21 00:44:27;;;;;;;2.87;2.03;;;6.40;99.90;;;;;;4972728;28;20234;-69
2022/09/21 00:47:01;;;;;;;2.30;1.90;;;6.30;99.90;;;;;;4973676;28;20190;-70
2022/09/21 00:49:30;;;;;;;2.70;1.83;;;6.30;99.90;;;;;;4973644;28;20186;-70
2022/09/21 00:52:01;;;;;;;2.40;2.20;;;6.40;99.90;;;;;;4973526;28;20205;-68
2022/09/21 00:54:34;;;;;;;3.60;2.13;;;6.30;99.90;;;;;;4973543;28;20607;-70
2022/09/21 00:57:04;;;;;;;2.00;1.80;;;6.30;99.90;;;;;;4973559;28;20198;-70
2022/09/21 00:59:37;;;;;;;2.13;1.93;;;6.40;99.90;;;;;;4973728;28;20229;-71
2022/09/21 01:02:06;;;;;;;2.47;2.23;;;6.30;99.90;;;;;;4973333;28;20203;-70
2022/09/21 01:04:35;;;;;;;3.67;2.07;;;6.30;99.90;;;;;;4972725;28;20249;-71
2022/09/21 01:07:09;;;;;;;5.77;1.80;;;6.30;99.90;;;;;;4975977;28;20257;-70
2022/09/21 01:09:41;;;;;;;2.00;1.80;;;6.20;99.90;;;;;;4977342;28;20198;-70
2022/09/21 01:12:25;;;;;;;3.00;1.70;;;6.10;99.90;;;;;;4977388;28;20252;-70
2022/09/21 01:15:03;;;;;;;4.37;2.00;;;6.10;99.90;;;;;;4977272;28;20682;-70
2022/09/21 01:17:41;;;;;;;2.80;1.83;;;6.20;99.90;;;;;;4977076;28;20210;-71
2022/09/21 01:20:44;;;;;;;3.57;2.00;;;6.20;99.90;;;;;;4977126;28;20225;-69
2022/09/21 01:23:33;;;;;;;4.27;2.27;;;6.20;99.90;;;;;;4976735;28;20202;-70
2022/09/21 01:26:13;;;;;;;4.77;2.43;;;6.20;99.90;;;;;;4988947;28;20216;-70
2022/09/21 01:29:17;;;;;;;5.60;2.17;;;6.10;99.90;;;;;;4996476;28;20214;-70
2022/09/21 01:31:53;;;;;;;3.63;2.13;;;6.20;99.90;;;;;;4993961;28;20216;-70
2022/09/21 01:34:28;;;;;;;3.87;1.93;;;6.10;99.90;;;;;;4995899;28;20229;-70
2022/09/21 01:37:02;;;;;;;2.77;2.00;;;6.00;99.90;;;;;;4995923;28;20228;-70
2022/09/21 01:39:33;;;;;;;5.43;1.97;;;6.00;99.90;;;;;;4995807;28;20225;-70
2022/09/21 01:42:05;;;;;;;3.97;2.10;;;6.00;99.90;;;;;;4995628;28;20209;-71
2022/09/21 01:44:38;;;;;;;3.20;2.50;;;6.00;99.90;;;;;;4996042;28;20229;-70
2022/09/21 01:47:11;;;;;;;3.83;2.00;;;5.90;99.90;;;;;;4995722;28;20213;-69
2022/09/21 01:49:44;;;;;;;5.07;2.00;;;5.90;99.90;;;;;;4995276;28;20206;-70
2022/09/21 01:52:25;;;;;;;12.30;2.40;;;5.90;99.90;;;;;;4995396;28;20209;-70
2022/09/21 01:54:58;;;;;;;5.40;2.00;;;5.90;99.90;;;;;;4995600;28;20592;-70
2022/09/21 01:57:32;;;;;;;3.30;1.73;;;5.90;99.90;;;;;;4996580;28;20206;-70
2022/09/21 02:00:02;;;;;;;3.80;2.00;;;5.80;99.90;;;;;;4995605;28;20236;-71
2022/09/21 02:02:47;;;;;;;2.60;1.90;;;5.80;99.90;;;;;;4995783;28;20205;-70
2022/09/21 02:05:19;;;;;;;2.07;1.87;;;5.80;99.90;;;;;;4995865;28;20225;-69
2022/09/21 02:07:50;;;;;;;2.30;1.90;;;5.80;99.90;;;;;;4995223;28;20202;-70
2022/09/21 02:10:22;;;;;;;2.10;1.70;;;5.80;99.90;;;;;;4995837;28;20205;-70
2022/09/21 02:12:55;;;;;;;2.93;2.40;;;5.70;99.90;;;;;;4995294;28;20202;-69
2022/09/21 02:15:32;;;;;;;2.97;1.87;;;5.70;99.90;;;;;;4994674;28;20344;-70
2022/09/21 02:18:06;;;;;;;4.13;2.60;;;5.70;99.90;;;;;;4994706;28;20213;-69
2022/09/21 02:20:41;;;;;;;1.73;1.50;;;5.70;99.90;;;;;;4995599;28;20240;-70
2022/09/21 02:23:14;;;;;;;1.70;1.60;;;5.70;99.90;;;;;;4995326;28;20228;-69
2022/09/21 02:25:50;;;;;;;3.40;1.90;;;5.60;99.90;;;;;;4994775;28;20662;-70
2022/09/21 02:28:28;;;;;;;2.10;1.70;;;5.60;99.90;;;;;;4994757;28;20216;-70
2022/09/21 02:31:06;;;;;;;2.40;1.90;;;5.50;99.90;;;;;;4995559;28;20686;-70
2022/09/21 02:33:44;;;;;;;2.27;2.00;;;5.50;99.90;;;;;;4995092;28;20217;-70
2022/09/21 02:36:21;;;;;;;2.53;2.00;;;5.50;99.90;;;;;;4994239;28;20565;-70
2022/09/21 02:38:53;;;;;;;4.73;2.33;;;5.50;99.90;;;;;;4994779;28;20257;-69
2022/09/21 02:41:29;;;;;;;2.50;2.30;;;5.40;99.90;;;;;;4995306;28;20229;-71
2022/09/21 02:44:28;;;;;;;3.73;3.17;;;5.40;99.90;;;;;;5005711;23;20712;31
2022/09/21 02:47:03;;;;;;;5.90;3.23;;;5.40;99.90;;;;;;4973273;28;20218;-70
2022/09/21 02:49:37;;;;;;;4.90;3.23;;;5.40;99.90;;;;;;4975495;28;20581;-71
2022/09/21 02:52:11;;;;;;;7.43;3.90;;;5.40;99.90;;;;;;4974860;28;20218;-73
2022/09/21 02:54:43;;;;;;;4.10;3.00;;;5.40;99.90;;;;;;4974694;28;20226;-70
2022/09/21 02:57:12;;;;;;;4.20;2.50;;;5.30;99.90;;;;;;4975337;28;20207;-69
2022/09/21 02:59:41;;;;;;;11.13;2.83;;;5.40;99.90;;;;;;4975334;28;20217;-68
2022/09/21 03:02:11;;;;;;;4.50;2.40;;;5.30;99.90;;;;;;4975529;28;20209;-67
2022/09/21 03:04:46;;;;;;;6.20;2.37;;;5.30;99.90;;;;;;4975520;28;20223;-67
2022/09/21 03:07:15;;;;;;;5.90;3.23;;;5.30;99.90;;;;;;4975467;28;20213;-68
2022/09/21 03:09:45;;;;;;;3.93;2.70;;;5.30;99.90;;;;;;4975013;28;20206;-67
2022/09/21 03:12:14;;;;;;;5.47;2.70;;;5.20;99.90;;;;;;4975038;28;20205;-66
2022/09/21 03:14:42;;;;;;;5.93;2.37;;;5.20;99.90;;;;;;4974357;28;20226;-64
2022/09/21 03:17:11;;;;;;;4.43;2.07;;;5.10;99.90;;;;;;4974992;28;20202;-66
2022/09/21 03:19:41;;;;;;;3.77;2.97;;;5.20;99.90;;;;;;4974828;28;20699;-65
2022/09/21 03:22:10;;;;;;;3.13;2.50;;;5.10;99.90;;;;;;4975173;28;20221;-65
2022/09/21 03:24:47;;;;;;;3.90;2.60;;;5.10;99.90;;;;;;4974846;28;20210;-64
2022/09/21 03:27:18;;;;;;;3.90;2.40;;;5.10;99.90;;;;;;4974899;28;20672;-65
2022/09/21 03:29:47;;;;;;;4.13;2.00;;;5.10;99.90;;;;;;4974484;28;20199;-65
2022/09/21 03:32:16;;;;;;;4.10;2.40;;;5.10;99.90;;;;;;4974913;28;20390;-65
2022/09/21 03:34:46;;;;;;;3.17;1.90;;;5.10;99.90;;;;;;4974582;28;20721;-64
2022/09/21 03:37:14;;;;;;;2.20;2.00;;;5.10;99.90;;;;;;4974757;28;20206;-64
2022/09/21 03:39:44;;;;;;;5.73;2.20;;;5.10;99.90;;;;;;4974906;28;20190;-65
2022/09/21 03:42:13;;;;;;;2.70;1.80;;;5.10;99.90;;;;;;4974433;28;20245;-66
2022/09/21 03:44:42;;;;;;;2.73;1.97;;;5.10;99.90;;;;;;4974311;28;20607;-65
2022/09/21 03:47:11;;;;;;;7.00;2.20;;;5.20;99.90;;;;;;4974568;28;20190;-65
2022/09/21 03:49:39;;;;;;;4.60;1.87;;;5.20;99.90;;;;;;4974480;28;20203;-65
2022/09/21 03:52:09;;;;;;;3.20;1.97;;;5.20;99.90;;;;;;4974234;28;20206;-67
2022/09/21 03:54:38;;;;;;;7.43;2.23;;;5.20;99.90;;;;;;4974098;28;20226;-71
2022/09/21 03:57:07;;;;;;;2.20;2.00;;;5.20;99.90;;;;;;4974648;28;20210;-65
2022/09/21 03:59:36;;;;;;;4.73;2.10;;;5.20;99.90;;;;;;4974521;28;20217;-64
2022/09/21 04:02:05;;;;;;;4.37;2.27;;;5.30;99.90;;;;;;4974439;28;20241;-65
2022/09/21 04:04:33;;;;;;;6.40;2.57;;;5.30;99.90;;;;;;4974101;28;20222;-65
2022/09/21 04:07:02;;;;;;;7.13;3.00;;;5.30;99.90;;;;;;4974339;28;20199;-66
2022/09/21 04:09:32;;;;;;;8.33;3.83;;;5.30;99.90;;;;;;4974583;28;20202;-66
2022/09/21 04:12:01;;;;;;;6.07;3.47;;;5.30;99.90;;;;;;4974296;28;20206;-66
2022/09/21 04:14:30;;;;;;;6.73;3.77;;;5.40;99.90;;;;;;4973936;28;20222;-64
2022/09/21 04:16:59;;;;;;;7.47;3.50;;;5.40;99.90;;;;;;4973890;28;20214;-65
2022/09/21 04:19:28;;;;;;;6.83;3.23;;;5.40;99.90;;;;;;4973482;28;20213;-65
2022/09/21 04:21:56;;;;;;;7.33;3.33;;;5.50;99.90;;;;;;4973953;28;20230;-66
2022/09/21 04:24:26;;;;;;;9.00;4.33;;;5.50;99.90;;;;;;4973744;28;20218;-65
2022/09/21 04:26:56;;;;;;;10.33;3.37;;;5.60;99.90;;;;;;4973803;28;20202;-64
2022/09/21 04:29:24;;;;;;;7.40;3.43;;;5.60;99.90;;;;;;4974028;28;20206;-64
2022/09/21 04:31:53;;;;;;;11.30;3.67;;;5.60;99.90;;;;;;4973799;28;20214;-66
2022/09/21 04:34:21;;;;;;;10.57;3.37;;;5.60;99.90;;;;;;4973736;28;20613;-67
2022/09/21 04:36:52;;;;;;;12.77;3.70;;;5.60;99.90;;;;;;4973723;28;20562;-65
2022/09/21 04:39:21;;;;;;;12.83;3.47;;;5.60;99.90;;;;;;4973254;28;20210;-67
2022/09/21 04:41:50;;;;;;;12.83;4.07;;;5.60;99.90;;;;;;4972755;28;20595;-66
2022/09/21 04:44:20;;;;;;;11.50;3.73;;;5.60;99.90;;;;;;4973403;28;20221;-65
2022/09/21 04:46:49;;;;;;;25.27;3.67;;;5.70;99.90;;;;;;4973878;28;20542;-67
2022/09/21 04:49:18;;;;;;;15.80;3.30;;;5.70;99.90;;;;;;4973640;28;20655;-66
2022/09/21 04:51:46;;;;;;;27.33;4.37;;;5.70;99.90;;;;;;4973676;28;20206;-66
2022/09/21 04:54:15;;;;;;;16.50;3.87;;;5.70;99.90;;;;;;4973005;28;20579;-66
2022/09/21 04:56:44;;;;;;;9.03;3.77;;;5.70;99.90;;;;;;4973509;28;20199;-67
2022/09/21 04:59:12;;;;;;;13.13;3.87;;;5.70;99.90;;;;;;4973503;28;20195;-65
2022/09/21 05:01:42;;;;;;;10.13;4.33;;;5.60;99.90;;;;;;4973439;28;20694;-67
2022/09/21 05:04:11;;;;;;;19.63;8.80;;;5.60;99.90;;;;;;4973488;28;20241;-67
2022/09/21 05:06:40;;;;;;;36.67;17.60;;;5.60;99.90;;;;;;4973445;28;20199;-67
2022/09/21 05:11:54;;;;;;;54.93;24.77;;;5.60;99.90;;;;;;4973556;28;20226;-65
2022/09/21 05:14:23;;;;;;;81.67;32.33;;;5.60;99.90;;;;;;4971982;28;20532;-65
2022/09/21 05:16:53;;;;;;;82.13;33.40;;;5.60;99.90;;;;;;4973289;28;20190;-67
2022/09/21 05:19:22;;;;;;;65.67;28.93;;;5.70;99.90;;;;;;4973687;28;20206;-66
2022/09/21 05:21:51;;;;;;;47.30;18.03;;;5.70;99.90;;;;;;4972448;28;20606;-66
2022/09/21 05:24:19;;;;;;;54.30;25.30;;;5.70;99.90;;;;;;4973296;28;20229;-66
2022/09/21 05:26:48;;;;;;;39.20;10.87;;;5.80;99.90;;;;;;4973273;28;20536;-66
2022/09/21 05:29:17;;;;;;;32.47;11.07;;;5.80;99.90;;;;;;4973235;28;20226;-66
2022/09/21 05:31:49;;;;;;;13.23;6.80;;;5.90;99.90;;;;;;4972840;28;20203;-65
2022/09/21 05:34:33;;;;;;;9.53;5.10;;;5.90;99.90;;;;;;4973136;28;20606;-67
2022/09/21 05:37:10;;;;;;;14.13;5.07;;;5.90;99.90;;;;;;4973184;28;20190;-66
2022/09/21 05:39:39;;;;;;;14.70;5.40;;;5.80;99.90;;;;;;4973173;28;20182;-65
2022/09/21 05:42:10;;;;;;;8.23;4.13;;;5.90;99.90;;;;;;4973044;28;20607;-67
2022/09/21 05:44:39;;;;;;;12.77;4.27;;;6.00;99.90;;;;;;4972872;28;20233;-67
2022/09/21 05:47:20;;;;;;;18.63;3.70;;;6.00;99.90;;;;;;4973070;28;20639;-67
2022/09/21 05:49:59;;;;;;;7.67;3.13;;;6.00;99.90;;;;;;4973040;28;20191;-66
2022/09/21 05:52:35;;;;;;;14.27;3.50;;;6.00;99.90;;;;;;4974458;28;20191;-65
2022/09/21 05:55:13;;;;;;;7.77;3.30;;;6.00;99.90;;;;;;4976589;28;20214;-66
2022/09/21 05:57:51;;;;;;;5.93;3.27;;;6.00;99.90;;;;;;4976804;28;20230;-66
2022/09/21 06:00:21;;;;;;;9.00;4.30;;;5.90;99.90;;;;;;4976366;28;20206;-66
2022/09/21 06:03:16;;;;;;;18.90;3.67;;;6.00;99.90;;;;;;4976466;28;20206;-65
2022/09/21 06:05:46;;;;;;;23.20;4.23;;;6.00;99.90;;;;;;4976458;28;20202;-64
2022/09/21 06:08:15;;;;;;;13.57;3.27;;;6.00;99.90;;;;;;4976672;28;20202;-65
2022/09/21 06:10:44;;;;;;;13.10;3.60;;;5.90;99.90;;;;;;4976335;28;20194;-66
2022/09/21 06:13:12;;;;;;;10.50;3.23;;;5.90;99.90;;;;;;4976303;28;20194;-67
2022/09/21 06:15:41;;;;;;;8.33;3.40;;;6.00;99.90;;;;;;4976329;28;20658;-67
2022/09/21 06:18:11;;;;;;;11.67;4.73;;;6.00;99.90;;;;;;4976396;28;20195;-66
2022/09/21 06:20:47;;;;;;;10.33;4.03;;;6.00;99.90;;;;;;4976116;28;20186;-64
2022/09/21 06:23:15;;;;;;;27.83;4.63;;;6.10;99.90;;;;;;4976136;28;20237;-66
2022/09/21 06:25:44;;;;;;;25.27;4.80;;;6.20;99.90;;;;;;4976138;28;20221;-65
2022/09/21 06:28:13;;;;;;;24.10;5.90;;;6.20;99.90;;;;;;4976015;28;20198;-65
2022/09/21 06:30:43;;;;;;;6.23;4.10;;;6.20;99.90;;;;;;4976016;28;20194;-65
2022/09/21 06:33:19;;;;;;;17.80;7.90;;;6.20;99.90;;;;;;4975941;28;20190;-65
2022/09/21 06:35:54;;;;;;;29.80;7.20;;;6.20;99.90;;;;;;4975727;28;20210;-66
2022/09/21 06:38:24;;;;;;;16.23;4.70;;;6.30;99.90;;;;;;4975869;28;20201;-66
2022/09/21 06:40:53;;;;;;;18.67;6.90;;;6.30;99.90;;;;;;4975871;28;20202;-68
2022/09/21 06:43:22;;;;;;;33.13;6.37;;;6.30;99.90;;;;;;4975557;28;20709;-67
2022/09/21 06:45:54;;;;;;;8.73;5.40;;;6.20;99.90;;;;;;4975607;28;20651;-67
2022/09/21 06:48:24;;;;;;;12.10;5.07;;;6.20;99.90;;;;;;4975676;28;20214;-68
2022/09/21 06:50:58;;;;;;;18.73;4.60;;;6.20;99.90;;;;;;4975579;28;20555;-65
2022/09/21 06:53:28;;;;;;;12.23;5.57;;;6.30;99.90;;;;;;4975475;28;20190;-65
2022/09/21 06:56:01;;;;;;;9.27;5.10;;;6.20;99.90;;;;;;4975477;28;20190;-65
2022/09/21 06:58:30;;;;;;;9.90;4.47;;;6.20;99.90;;;;;;4975503;28;20191;-65
2022/09/21 07:01:03;;;;;;;9.80;4.63;;;6.20;99.90;;;;;;4975448;28;20194;-67
2022/09/21 07:03:32;;;;;;;13.77;5.60;;;6.30;99.90;;;;;;4974467;28;20214;-66
2022/09/21 07:06:02;;;;;;;20.77;5.17;;;6.40;99.90;;;;;;4975546;28;20667;-66
2022/09/21 07:08:31;;;;;;;13.97;5.83;;;6.40;99.90;;;;;;4975196;28;20199;-66
2022/09/21 07:11:20;;;;;;;14.50;4.77;;;6.50;99.90;;;;;;4975052;28;20194;-66
2022/09/21 07:13:49;;;;;;;13.60;6.33;;;6.50;99.90;;;;;;4975028;28;20218;-66
2022/09/21 07:16:18;;;;;;;18.00;5.70;;;6.50;99.90;;;;;;4975055;28;20194;-66
2022/09/21 07:18:47;;;;;;;12.23;6.87;;;6.60;99.90;;;;;;4975062;28;20198;-66
2022/09/21 07:21:17;;;;;;;11.03;6.77;;;6.60;99.90;;;;;;4974985;28;20194;-68
2022/09/21 07:23:46;;;;;;;24.53;5.53;;;6.80;99.90;;;;;;4974839;28;20235;-66
2022/09/21 07:26:15;;;;;;;26.90;6.70;;;6.80;99.90;;;;;;4974973;28;20275;-66
2022/09/21 07:28:43;;;;;;;14.70;7.77;;;6.70;99.90;;;;;;4974922;28;20537;-66
2022/09/21 07:31:14;;;;;;;17.93;6.57;;;6.70;99.90;;;;;;4974921;28;20186;-66
2022/09/21 07:33:45;;;;;;;7.63;5.43;;;6.80;99.90;;;;;;4974805;28;20234;-66
2022/09/21 07:36:15;;;;;;;8.40;5.93;;;6.80;99.90;;;;;;4974780;28;20209;-66
2022/09/21 07:38:45;;;;;;;11.60;6.37;;;6.90;99.90;;;;;;4975029;28;20560;-67
2022/09/21 07:41:14;;;;;;;35.30;6.57;;;7.00;99.90;;;;;;4974677;28;20654;-66
2022/09/21 07:43:43;;;;;;;11.90;6.07;;;7.10;99.90;;;;;;4974390;28;20237;-66
2022/09/21 07:46:13;;;;;;;10.40;6.93;;;7.20;99.90;;;;;;4974513;28;20202;-66
2022/09/21 07:48:42;;;;;;;9.70;6.50;;;7.30;99.90;;;;;;4974649;28;20230;-67
2022/09/21 07:51:13;;;;;;;15.67;5.83;;;7.40;99.90;;;;;;4974472;28;20203;-66
2022/09/21 07:53:44;;;;;;;8.97;6.13;;;7.30;99.90;;;;;;4974317;28;20222;-65
2022/09/21 07:56:16;;;;;;;10.70;6.60;;;7.30;99.90;;;;;;4973325;28;20194;-66
2022/09/21 08:01:32;;;;;;;9.97;6.93;;;7.50;99.90;;;;;;4974351;28;20190;-65
2022/09/21 08:04:01;;;;;;;12.27;6.47;;;7.50;99.90;;;;;;4974193;28;20238;-67
2022/09/21 08:06:32;;;;;;;8.77;6.13;;;7.60;99.90;;;;;;4974111;28;20201;-67
2022/09/21 08:09:01;;;;;;;8.33;5.83;;;7.70;99.90;;;;;;4974156;28;20198;-67
2022/09/21 08:11:33;;;;;;;12.87;7.00;;;7.70;99.90;;;;;;4956867;28;20186;-65
2022/09/21 08:14:03;;;;;;;9.77;6.40;;;7.70;99.90;;;;;;4974101;28;20226;-66
2022/09/21 08:16:32;;;;;;;13.83;7.67;;;7.70;99.90;;;;;;4972704;28;20183;-66
2022/09/21 08:19:02;;;;;;;9.73;5.73;;;7.70;99.90;;;;;;4956854;28;20556;-66
2022/09/21 08:21:31;;;;;;;7.73;6.17;;;7.70;99.90;;;;;;4956706;28;20201;-65
2022/09/21 08:23:59;;;;;;;12.40;7.23;;;7.80;99.90;;;;;;4973744;28;20597;-66
2022/09/21 08:26:28;;;;;;;10.73;7.37;;;7.80;99.90;;;;;;4973851;28;20195;-66
2022/09/21 08:28:58;;;;;;;11.60;7.60;;;7.90;99.90;;;;;;4973834;28;20595;-66
2022/09/21 08:31:27;;;;;;;7.53;6.43;;;8.00;99.90;;;;;;4974134;28;20578;-67
2022/09/21 08:33:57;;;;;;;7.10;5.43;;;8.10;99.90;;;;;;4973691;28;20222;-66
2022/09/21 08:36:26;;;;;;;6.70;6.00;;;8.20;99.90;;;;;;4956403;28;20206;-67
2022/09/21 08:38:55;;;;;;;6.13;5.47;;;8.30;99.90;;;;;;4973707;28;20574;-66
2022/09/21 08:41:31;;;;;;;8.23;5.43;;;8.40;99.90;;;;;;4973687;28;20195;-66
2022/09/21 08:44:05;;;;;;;7.90;6.17;;;8.50;99.90;;;;;;4973710;28;20241;-66
2022/09/21 08:46:35;;;;;;;6.97;5.80;;;8.60;99.90;;;;;;4973616;28;20206;-66
2022/09/21 08:49:14;;;;;;;7.17;5.77;;;8.60;99.90;;;;;;4994291;22;20199;-72
2022/09/21 08:51:49;;;;;;;6.60;5.40;;;8.60;99.90;;;;;;5030058;28;20242;-71
2022/09/21 08:54:25;;;;;;;7.77;6.47;;;8.80;99.90;;;;;;5032273;28;20216;-71
2022/09/21 08:56:53;;;;;;;7.73;6.60;;;8.90;99.90;;;;;;5032323;28;20191;-72
2022/09/21 08:59:35;;;;;;;7.03;6.10;;;8.80;99.90;;;;;;5032344;28;20189;-71
2022/09/21 09:02:25;;;;;;;8.30;6.37;;;8.90;99.90;;;;;;5032115;28;20219;-71
2022/09/21 09:05:02;;;;;;;7.17;6.33;;;9.10;99.90;;;;;;5032150;28;20234;-69
2022/09/21 09:07:50;;;;;;;7.63;6.33;;;9.10;99.90;;;;;;5032288;28;20185;-69
2022/09/21 09:10:32;;;;;;;8.90;6.53;;;9.10;99.90;;;;;;5032133;28;20185;-70
2022/09/21 09:13:13;;;;;;;8.13;6.83;;;9.20;99.90;;;;;;5032164;28;20193;-69
2022/09/21 09:15:54;;;;;;;9.00;6.63;;;9.30;99.90;;;;;;5032435;28;20350;-69
2022/09/21 09:18:31;;;;;;;7.47;6.13;;;9.30;99.90;;;;;;5032203;28;20189;-69
2022/09/21 09:21:04;;;;;;;9.87;6.67;;;9.60;99.90;;;;;;5032330;28;20605;-69
2022/09/21 09:23:37;;;;;;;7.63;6.10;;;9.80;99.90;;;;;;5031976;28;20687;-69
2022/09/21 09:26:12;;;;;;;8.70;6.60;;;9.90;99.90;;;;;;5032054;28;20223;-69
2022/09/21 09:28:45;;;;;;;7.50;6.70;;;10.10;99.90;;;;;;5035533;28;20184;-69
2022/09/21 09:31:27;;;;;;;7.90;6.47;;;10.30;99.90;;;;;;5035969;28;20196;-70
2022/09/21 09:34:01;;;;;;;7.47;6.00;;;10.70;99.90;;;;;;5035921;28;20560;-70
2022/09/21 09:36:33;;;;;;;8.07;6.20;;;10.90;99.90;;;;;;5035819;28;20183;-70
2022/09/21 09:39:22;;;;;;;6.40;5.57;;;11.00;99.90;;;;;;5035824;28;20633;-70
2022/09/21 09:42:15;;;;;;;7.22;5.72;;;11.20;99.90;;;;;;5035629;28;20230;-69
2022/09/21 09:45:05;;;;;;;7.80;6.13;;;11.30;99.90;;;;;;5035487;28;20231;-70
2022/09/21 09:47:47;;;;;;;9.02;5.93;;;11.30;99.90;;;;;;5035786;28;20191;-71
2022/09/21 09:50:21;;;;;;;7.60;5.97;;;11.40;99.90;;;;;;5035495;28;20196;-69
2022/09/21 09:52:53;;;;;;;8.48;5.82;;;11.50;99.90;;;;;;5035527;28;20661;-69
2022/09/21 09:55:25;;;;;;;6.97;5.57;;;11.80;99.90;;;;;;5035454;28;20212;-69
2022/09/21 09:57:55;;;;;;;7.32;5.35;;;12.10;99.90;;;;;;5035580;28;20557;-69
2022/09/21 10:00:24;;;;;;;6.55;5.53;;;12.30;99.90;;;;;;5035741;28;20188;-69
2022/09/21 10:02:56;;;;;;;8.32;5.53;;;12.60;99.90;;;;;;5035390;28;20196;-70
2022/09/21 10:05:32;;;;;;;5.70;4.85;;;13.00;99.90;;;;;;5035255;28;20224;-70
2022/09/21 10:08:01;;;;;;;6.70;5.45;;;13.20;99.90;;;;;;5034886;28;20207;-69
2022/09/21 10:10:34;;;;;;;6.35;4.97;;;13.40;99.90;;;;;;5034871;28;20549;-70
2022/09/21 10:13:09;;;;;;;6.22;4.95;;;13.50;99.90;;;;;;5035262;28;20191;-70
2022/09/21 10:15:43;;;;;;;5.80;4.80;;;13.60;99.90;;;;;;5035147;28;20223;-71
2022/09/21 10:18:21;;;;;;;5.70;4.57;;;13.80;99.90;;;;;;5035176;28;20185;-70
2022/09/21 10:20:58;;;;;;;5.75;4.90;;;14.10;99.90;;;;;;5035010;28;20196;-70
2022/09/21 10:23:29;;;;;;;5.82;4.85;;;14.30;99.90;;;;;;5034909;28;20189;-71
2022/09/21 10:26:01;;;;;;;5.32;4.82;;;14.40;99.90;;;;;;5034400;28;20240;-70
2022/09/21 10:28:31;;;;;;;4.35;3.90;;;14.40;99.90;;;;;;5034917;28;20196;-69
2022/09/21 10:31:14;;;;;;;4.63;3.15;;;14.70;99.90;;;;;;5034771;28;20204;-69
2022/09/21 10:33:49;;;;;;;4.50;3.80;;;15.00;99.90;;;;;;5034036;28;20240;-69
2022/09/21 10:36:33;;;;;;;4.95;3.55;;;15.30;99.90;;;;;;5034915;28;20214;-71
2022/09/21 10:39:20;;;;;;;5.72;3.80;;;15.40;99.90;;;;;;5034590;28;20200;-70
2022/09/21 10:41:51;;;;;;;4.88;3.78;;;15.60;99.90;;;;;;5034289;28;20208;-71
2022/09/21 10:44:23;;;;;;;3.53;2.92;;;15.90;99.90;;;;;;5034516;28;20228;-68
2022/09/21 10:46:52;;;;;;;3.08;2.47;;;16.20;99.90;;;;;;5034427;28;20204;-70
2022/09/21 10:49:24;;;;;;;3.25;2.60;;;16.30;99.90;;;;;;5034365;28;20193;-70
2022/09/21 10:51:56;;;;;;;4.35;2.22;;;16.50;99.90;;;;;;5034431;28;20185;-70
2022/09/21 10:54:28;;;;;;;4.32;2.53;;;16.80;97.30;;;;;;5033982;28;20704;-70
2022/09/21 10:57:01;;;;;;;2.65;2.05;;;17.00;98.20;;;;;;5033076;28;20200;-69
2022/09/21 10:59:32;;;;;;;2.90;2.13;;;16.90;96.60;;;;;;5034372;28;20181;-69
2022/09/21 11:02:02;;;;;;;2.67;1.90;;;16.90;96.30;;;;;;5034244;28;20200;-69
2022/09/21 11:04:41;;;;;;;3.03;2.08;;;16.90;95.50;;;;;;5034089;28;20212;-69
2022/09/21 11:07:17;;;;;;;4.63;2.58;;;17.20;93.40;;;;;;5034099;28;20204;-68
2022/09/21 11:09:53;;;;;;;3.80;1.98;;;17.60;93.30;;;;;;5034480;28;20188;-70
2022/09/21 11:12:43;;;;;;;3.05;2.00;;;17.90;93.10;;;;;;5034111;28;20188;-69
2022/09/21 11:15:20;;;;;;;3.03;2.03;;;17.80;92.70;;;;;;5034099;28;20212;-69
2022/09/21 11:17:56;;;;;;;4.20;2.85;;;18.10;92.60;;;;;;5033473;28;20204;-70
2022/09/21 11:20:31;;;;;;;3.22;2.10;;;18.10;92.80;;;;;;5033923;28;20192;-69
2022/09/21 11:23:05;;;;;;;2.00;1.80;;;18.30;89.90;;;;;;5033880;28;20184;-69
2022/09/21 11:25:42;;;;;;;3.47;2.10;;;18.30;90.80;;;;;;5032661;28;20216;-69
2022/09/21 11:28:16;;;;;;;3.08;2.08;;;18.30;92.10;;;;;;5033674;28;20195;-69
2022/09/21 11:31:04;;;;;;;2.65;2.08;;;18.60;89.90;;;;;;5031947;28;20207;-69
2022/09/21 11:33:46;;;;;;;4.05;1.80;;;18.70;90.10;;;;;;5033616;28;20180;-69
2022/09/21 11:36:26;;;;;;;3.50;2.28;;;18.90;86.50;;;;;;5033673;28;20195;-69
2022/09/21 11:39:01;;;;;;;2.35;1.80;;;18.90;86.90;;;;;;5033620;28;20196;-69
2022/09/21 11:41:45;;;;;;;2.25;1.65;;;18.90;85.10;;;;;;5032368;28;20180;-70
2022/09/21 11:44:41;;;;;;;1.95;1.50;;;19.10;80.50;;;;;;5032983;28;20251;-68
2022/09/21 11:47:25;;;;;;;1.98;1.50;;;19.30;82.70;;;;;;5033274;28;20216;-69
2022/09/21 11:50:17;;;;;;;2.13;1.60;;;19.10;81.20;;;;;;5032964;28;20571;-68
2022/09/21 11:53:17;;;;;;;2.38;1.50;;;19.10;80.80;;;;;;5033281;28;20199;-69
2022/09/21 11:56:23;;;;;;;1.95;1.40;;;19.30;76.90;;;;;;5033328;28;20555;-70
2022/09/21 11:59:05;;;;;;;1.10;0.98;;;19.30;76.50;;;;;;5033384;28;20189;-69
2022/09/21 12:01:47;;;;;;;1.77;0.93;;;19.80;70.70;;;;;;5033278;28;20667;-68
2022/09/21 12:04:32;;;;;;;1.77;1.10;;;20.10;70.00;;;;;;5033143;28;20221;-68
2022/09/21 12:07:13;;;;;;;2.13;1.50;;;19.90;71.10;;;;;;5033140;28;20208;-68
2022/09/21 12:10:03;;;;;;;1.70;1.30;;;19.70;75.10;;;;;;5033001;28;20192;-68
2022/09/21 12:12:43;;;;;;;1.90;1.52;;;19.80;74.30;;;;;;5033120;28;20645;-69
2022/09/21 12:15:21;;;;;;;3.38;1.40;;;20.00;73.00;;;;;;5032477;28;20228;-69
2022/09/21 12:17:58;;;;;;;3.25;1.60;;;20.00;72.40;;;;;;5032916;28;20207;-69
2022/09/21 12:20:34;;;;;;;2.42;1.55;;;19.70;72.90;;;;;;5032859;28;20195;-68
2022/09/21 12:23:10;;;;;;;2.03;1.25;;;19.90;70.80;;;;;;5032840;28;20189;-68
2022/09/21 12:25:44;;;;;;;2.75;1.25;;;19.90;73.70;;;;;;5032658;28;20216;-68
2022/09/21 12:28:20;;;;;;;1.90;1.23;;;20.00;66.80;;;;;;5032266;28;20232;-68
2022/09/21 12:30:53;;;;;;;3.00;1.80;;;20.10;69.70;;;;;;5032688;28;20192;-68
2022/09/21 12:33:34;;;;;;;2.22;1.80;;;19.90;73.70;;;;;;5032639;28;20199;-67
2022/09/21 12:36:10;;;;;;;3.08;1.45;;;19.80;73.10;;;;;;5032858;28;20555;-68
2022/09/21 12:38:43;;;;;;;1.75;1.40;;;20.00;70.40;;;;;;5032736;28;20548;-70
2022/09/21 12:41:22;;;;;;;2.42;1.58;;;20.40;67.50;;;;;;5032590;28;20192;-70
2022/09/21 12:43:56;;;;;;;2.80;1.73;;;20.40;66.80;;;;;;5032450;28;20216;-69
2022/09/21 12:46:29;;;;;;;3.53;1.83;;;20.40;69.70;;;;;;5032426;28;20208;-69
2022/09/21 12:49:01;;;;;;;2.55;2.08;;;20.20;70.40;;;;;;5032555;28;20195;-69
2022/09/21 12:51:34;;;;;;;2.70;1.60;;;20.30;72.40;;;;;;5032336;28;20196;-69
2022/09/21 12:54:13;;;;;;;2.53;1.60;;;20.40;69.50;;;;;;5032360;28;20707;-69
2022/09/21 12:56:50;;;;;;;3.28;2.33;;;20.50;68.20;;;;;;5032447;28;20205;-69
2022/09/21 12:59:30;;;;;;;2.65;2.10;;;20.30;70.50;;;;;;5032420;28;20192;-69
2022/09/21 13:02:13;;;;;;;3.00;2.03;;;20.20;71.40;;;;;;5033207;28;20207;-70
2022/09/21 13:04:52;;;;;;;3.55;2.15;;;20.10;74.30;;;;;;5036434;28;20235;-69
2022/09/21 13:07:59;;;;;;;2.78;2.00;;;20.10;71.10;;;;;;5036413;28;20216;-69
2022/09/21 13:10:57;;;;;;;5.53;4.53;;;20.30;69.50;;;;;;5036417;28;20564;-69
2022/09/21 13:13:32;;;;;;;4.25;2.88;;;20.20;68.00;;;;;;5019758;28;20220;-70
2022/09/21 13:16:03;;;;;;;2.55;1.90;;;20.20;67.80;;;;;;5036346;28;20263;-69
2022/09/21 13:18:34;;;;;;;2.33;1.60;;;20.10;71.40;;;;;;5036245;28;20672;-70
2022/09/21 13:21:17;;;;;;;2.78;2.30;;;20.10;72.00;;;;;;5036303;28;20242;-70
2022/09/21 13:23:52;;;;;;;3.83;2.17;;;19.80;71.30;;;;;;5036155;28;20223;-69
2022/09/21 13:26:32;;;;;;;2.58;2.30;;;19.50;70.90;;;;;;5036074;28;20187;-70
2022/09/21 13:29:21;;;;;;;5.20;2.30;;;19.30;72.30;;;;;;5035989;28;20220;-70
2022/09/21 13:31:57;;;;;;;3.17;2.30;;;19.30;72.90;;;;;;5035780;28;20695;-70